sensor_id;sensor_type;location;lat;lon;timestamp;temperature;humidity
46508;DHT22;32223;53.654;10.014;2024-02-16T00:02:18;10.90;99.90
46508;DHT22;32223;53.654;10.014;2024-02-16T00:04:44;10.90;99.90
46508;DHT22;32223;53.654;10.014;2024-02-16T00:07:09;11.00;99.90
46508;DHT22;32223;53.654;10.014;2024-02-16T00:09:35;10.90;99.90
46508;DHT22;32223;53.654;10.014;2024-02-16T00:12:01;11.00;99.90
46508;DHT22;32223;53.654;10.014;2024-02-16T00:14:27;10.80;99.90
46508;DHT22;32223;53.654;10.014;2024-02-16T00:16:52;10.80;99.90
46508;DHT22;32223;53.654;10.014;2024-02-16T00:19:18;10.90;99.90
46508;DHT22;32223;53.654;10.014;2024-02-16T00:21:43;10.80;99.90
46508;DHT22;32223;53.654;10.014;2024-02-16T00:24:09;10.80;99.90
46508;DHT22;32223;53.654;10.014;2024-02-16T00:26:36;10.80;99.90
46508;DHT22;32223;53.654;10.014;2024-02-16T00:29:01;10.70;99.90
46508;DHT22;32223;53.654;10.014;2024-02-16T00:31:27;10.80;99.90
46508;DHT22;32223;53.654;10.014;2024-02-16T00:33:52;10.70;99.90
46508;DHT22;32223;53.654;10.014;2024-02-16T00:36:18;10.60;99.90
46508;DHT22;32223;53.654;10.014;2024-02-16T00:38:43;10.80;99.90
46508;DHT22;32223;53.654;10.014;2024-02-16T00:41:18;10.70;99.90
46508;DHT22;32223;53.654;10.014;2024-02-16T00:43:43;10.70;99.90
46508;DHT22;32223;53.654;10.014;2024-02-16T00:46:10;10.70;99.90
46508;DHT22;32223;53.654;10.014;2024-02-16T00:48:36;10.70;99.90
46508;DHT22;32223;53.654;10.014;2024-02-16T00:51:02;10.70;99.90
46508;DHT22;32223;53.654;10.014;2024-02-16T00:53:27;10.80;99.90
46508;DHT22;32223;53.654;10.014;2024-02-16T00:55:53;10.80;99.90
46508;DHT22;32223;53.654;10.014;2024-02-16T00:58:18;10.70;99.90
46508;DHT22;32223;53.654;10.014;2024-02-16T01:00:46;10.80;99.90
46508;DHT22;32223;53.654;10.014;2024-02-16T01:03:12;10.70;99.90
46508;DHT22;32223;53.654;10.014;2024-02-16T01:05:39;10.70;99.90
46508;DHT22;32223;53.654;10.014;2024-02-16T01:08:05;10.60;99.90
46508;DHT22;32223;53.654;10.014;2024-02-16T01:10:31;10.60;99.90
46508;DHT22;32223;53.654;10.014;2024-02-16T01:12:56;10.60;99.90
46508;DHT22;32223;53.654;10.014;2024-02-16T01:15:22;10.60;99.90
46508;DHT22;32223;53.654;10.014;2024-02-16T01:17:49;10.50;99.90
46508;DHT22;32223;53.654;10.014;2024-02-16T01:20:15;10.60;99.90
46508;DHT22;32223;53.654;10.014;2024-02-16T01:22:41;10.50;99.90
46508;DHT22;32223;53.654;10.014;2024-02-16T01:25:07;10.50;99.90
46508;DHT22;32223;53.654;10.014;2024-02-16T01:27:34;10.40;99.90
46508;DHT22;32223;53.654;10.014;2024-02-16T01:30:00;10.40;99.90
46508;DHT22;32223;53.654;10.014;2024-02-16T01:32:26;10.40;99.90
46508;DHT22;32223;53.654;10.014;2024-02-16T01:34:52;10.30;99.90
46508;DHT22;32223;53.654;10.014;2024-02-16T01:37:17;10.30;99.90
46508;DHT22;32223;53.654;10.014;2024-02-16T01:39:44;10.30;99.90
46508;DHT22;32223;53.654;10.014;2024-02-16T01:42:10;10.40;99.90
46508;DHT22;32223;53.654;10.014;2024-02-16T01:44:38;10.30;99.90
46508;DHT22;32223;53.654;10.014;2024-02-16T01:47:04;10.40;99.90
46508;DHT22;32223;53.654;10.014;2024-02-16T01:49:30;10.30;99.90
46508;DHT22;32223;53.654;10.014;2024-02-16T01:51:56;10.40;99.90
46508;DHT22;32223;53.654;10.014;2024-02-16T01:54:22;10.30;99.90
46508;DHT22;32223;53.654;10.014;2024-02-16T01:56:48;10.30;99.90
46508;DHT22;32223;53.654;10.014;2024-02-16T01:59:16;10.20;99.90
46508;DHT22;32223;53.654;10.014;2024-02-16T02:01:42;10.30;99.90
46508;DHT22;32223;53.654;10.014;2024-02-16T02:04:08;10.20;99.90
46508;DHT22;32223;53.654;10.014;2024-02-16T02:06:33;10.40;99.90
46508;DHT22;32223;53.654;10.014;2024-02-16T02:08:59;10.20;99.90
46508;DHT22;32223;53.654;10.014;2024-02-16T02:11:25;10.30;99.90
46508;DHT22;32223;53.654;10.014;2024-02-16T02:13:50;10.30;99.90
46508;DHT22;32223;53.654;10.014;2024-02-16T02:16:16;10.30;99.90
46508;DHT22;32223;53.654;10.014;2024-02-16T02:18:44;10.30;99.90
46508;DHT22;32223;53.654;10.014;2024-02-16T02:21:10;10.30;99.90
46508;DHT22;32223;53.654;10.014;2024-02-16T02:23:35;10.30;99.90
46508;DHT22;32223;53.654;10.014;2024-02-16T02:26:01;10.20;99.90
46508;DHT22;32223;53.654;10.014;2024-02-16T02:28:27;10.20;99.90
46508;DHT22;32223;53.654;10.014;2024-02-16T02:30:52;10.30;99.90
46508;DHT22;32223;53.654;10.014;2024-02-16T02:33:18;10.30;99.90
46508;DHT22;32223;53.654;10.014;2024-02-16T02:35:45;10.30;99.90
46508;DHT22;32223;53.654;10.014;2024-02-16T02:38:12;10.30;99.90
46508;DHT22;32223;53.654;10.014;2024-02-16T02:40:37;10.30;99.90
46508;DHT22;32223;53.654;10.014;2024-02-16T02:43:03;10.20;99.90
46508;DHT22;32223;53.654;10.014;2024-02-16T02:45:29;10.30;99.90
46508;DHT22;32223;53.654;10.014;2024-02-16T02:47:54;10.20;99.90
46508;DHT22;32223;53.654;10.014;2024-02-16T02:50:20;10.20;99.90
46508;DHT22;32223;53.654;10.014;2024-02-16T02:52:46;10.20;99.90
46508;DHT22;32223;53.654;10.014;2024-02-16T02:55:11;10.30;99.90
46508;DHT22;32223;53.654;10.014;2024-02-16T02:57:37;10.20;99.90
46508;DHT22;32223;53.654;10.014;2024-02-16T03:00:07;10.20;99.90
46508;DHT22;32223;53.654;10.014;2024-02-16T03:02:37;10.20;99.90
46508;DHT22;32223;53.654;10.014;2024-02-16T03:05:03;10.20;99.90
46508;DHT22;32223;53.654;10.014;2024-02-16T03:07:29;10.20;99.90
46508;DHT22;32223;53.654;10.014;2024-02-16T03:09:54;10.20;99.90
46508;DHT22;32223;53.654;10.014;2024-02-16T03:12:20;10.20;99.90
46508;DHT22;32223;53.654;10.014;2024-02-16T03:14:46;10.20;99.90
46508;DHT22;32223;53.654;10.014;2024-02-16T03:17:11;10.20;99.90
46508;DHT22;32223;53.654;10.014;2024-02-16T03:19:37;10.10;99.90
46508;DHT22;32223;53.654;10.014;2024-02-16T03:22:02;10.20;99.90
46508;DHT22;32223;53.654;10.014;2024-02-16T03:24:28;10.20;99.90
46508;DHT22;32223;53.654;10.014;2024-02-16T03:26:53;10.10;99.90
46508;DHT22;32223;53.654;10.014;2024-02-16T03:29:19;10.10;99.90
46508;DHT22;32223;53.654;10.014;2024-02-16T03:31:44;10.10;99.90
46508;DHT22;32223;53.654;10.014;2024-02-16T03:34:10;10.10;99.90
46508;DHT22;32223;53.654;10.014;2024-02-16T03:36:35;10.20;99.90
46508;DHT22;32223;53.654;10.014;2024-02-16T03:39:01;10.10;99.90
46508;DHT22;32223;53.654;10.014;2024-02-16T03:41:27;10.20;99.90
46508;DHT22;32223;53.654;10.014;2024-02-16T03:43:53;10.20;99.90
46508;DHT22;32223;53.654;10.014;2024-02-16T03:46:19;10.20;99.90
46508;DHT22;32223;53.654;10.014;2024-02-16T03:48:45;10.20;99.90
46508;DHT22;32223;53.654;10.014;2024-02-16T03:51:11;10.30;99.90
46508;DHT22;32223;53.654;10.014;2024-02-16T03:53:38;10.30;99.90
46508;DHT22;32223;53.654;10.014;2024-02-16T03:56:04;10.30;99.90
46508;DHT22;32223;53.654;10.014;2024-02-16T03:58:31;10.30;99.90
46508;DHT22;32223;53.654;10.014;2024-02-16T04:00:57;10.30;99.90
46508;DHT22;32223;53.654;10.014;2024-02-16T04:03:23;10.40;99.90
46508;DHT22;32223;53.654;10.014;2024-02-16T04:05:49;10.30;99.90
46508;DHT22;32223;53.654;10.014;2024-02-16T04:08:15;10.40;99.90
46508;DHT22;32223;53.654;10.014;2024-02-16T04:10:40;10.40;99.90
46508;DHT22;32223;53.654;10.014;2024-02-16T04:13:06;10.40;99.90
46508;DHT22;32223;53.654;10.014;2024-02-16T04:15:31;10.40;99.90
46508;DHT22;32223;53.654;10.014;2024-02-16T04:17:57;10.50;99.90
46508;DHT22;32223;53.654;10.014;2024-02-16T04:20:23;10.40;99.90
46508;DHT22;32223;53.654;10.014;2024-02-16T04:22:48;10.50;99.90
46508;DHT22;32223;53.654;10.014;2024-02-16T04:25:14;10.50;99.90
46508;DHT22;32223;53.654;10.014;2024-02-16T04:27:41;10.50;99.90
46508;DHT22;32223;53.654;10.014;2024-02-16T04:30:07;10.40;99.90
46508;DHT22;32223;53.654;10.014;2024-02-16T04:32:32;10.40;99.90
46508;DHT22;32223;53.654;10.014;2024-02-16T04:34:58;10.40;99.90
46508;DHT22;32223;53.654;10.014;2024-02-16T04:37:27;10.50;99.90
46508;DHT22;32223;53.654;10.014;2024-02-16T04:39:52;10.40;99.90
46508;DHT22;32223;53.654;10.014;2024-02-16T04:42:18;10.40;99.90
46508;DHT22;32223;53.654;10.014;2024-02-16T04:44:44;10.40;99.90
46508;DHT22;32223;53.654;10.014;2024-02-16T04:47:09;10.50;99.90
46508;DHT22;32223;53.654;10.014;2024-02-16T04:49:35;10.40;99.90
46508;DHT22;32223;53.654;10.014;2024-02-16T04:52:02;10.50;99.90
46508;DHT22;32223;53.654;10.014;2024-02-16T04:54:28;10.50;99.90
46508;DHT22;32223;53.654;10.014;2024-02-16T04:56:53;10.50;99.90
46508;DHT22;32223;53.654;10.014;2024-02-16T04:59:19;10.50;99.90
46508;DHT22;32223;53.654;10.014;2024-02-16T05:01:45;10.50;99.90
46508;DHT22;32223;53.654;10.014;2024-02-16T05:04:11;10.50;99.90
46508;DHT22;32223;53.654;10.014;2024-02-16T05:06:45;10.40;99.90
46508;DHT22;32223;53.654;10.014;2024-02-16T05:09:12;10.40;99.90
46508;DHT22;32223;53.654;10.014;2024-02-16T05:11:42;10.40;99.90
46508;DHT22;32223;53.654;10.014;2024-02-16T05:14:08;10.40;99.90
46508;DHT22;32223;53.654;10.014;2024-02-16T05:16:33;10.30;99.90
46508;DHT22;32223;53.654;10.014;2024-02-16T05:18:59;10.30;99.90
46508;DHT22;32223;53.654;10.014;2024-02-16T05:21:24;10.30;99.90
46508;DHT22;32223;53.654;10.014;2024-02-16T05:23:50;10.20;99.90
46508;DHT22;32223;53.654;10.014;2024-02-16T05:26:15;10.20;99.90
46508;DHT22;32223;53.654;10.014;2024-02-16T05:28:41;10.20;99.90
46508;DHT22;32223;53.654;10.014;2024-02-16T05:31:14;10.20;99.90
46508;DHT22;32223;53.654;10.014;2024-02-16T05:33:51;10.20;99.90
46508;DHT22;32223;53.654;10.014;2024-02-16T05:36:21;10.20;99.90
46508;DHT22;32223;53.654;10.014;2024-02-16T05:38:49;10.20;99.90
46508;DHT22;32223;53.654;10.014;2024-02-16T05:41:16;10.20;99.90
46508;DHT22;32223;53.654;10.014;2024-02-16T05:43:43;10.20;99.90
46508;DHT22;32223;53.654;10.014;2024-02-16T05:46:13;10.20;99.90
46508;DHT22;32223;53.654;10.014;2024-02-16T05:48:39;10.20;99.90
46508;DHT22;32223;53.654;10.014;2024-02-16T05:51:06;10.20;99.90
46508;DHT22;32223;53.654;10.014;2024-02-16T05:53:32;10.20;99.90
46508;DHT22;32223;53.654;10.014;2024-02-16T05:55:58;10.20;99.90
46508;DHT22;32223;53.654;10.014;2024-02-16T05:58:25;10.10;99.90
46508;DHT22;32223;53.654;10.014;2024-02-16T06:00:50;10.20;99.90
46508;DHT22;32223;53.654;10.014;2024-02-16T06:03:16;10.20;99.90
46508;DHT22;32223;53.654;10.014;2024-02-16T06:05:42;10.10;99.90
46508;DHT22;32223;53.654;10.014;2024-02-16T06:08:10;10.10;99.90
46508;DHT22;32223;53.654;10.014;2024-02-16T06:10:36;10.10;99.90
46508;DHT22;32223;53.654;10.014;2024-02-16T06:13:01;10.20;99.90
46508;DHT22;32223;53.654;10.014;2024-02-16T06:15:27;10.20;99.90
46508;DHT22;32223;53.654;10.014;2024-02-16T06:17:52;10.20;99.90
46508;DHT22;32223;53.654;10.014;2024-02-16T06:20:18;10.20;99.90
46508;DHT22;32223;53.654;10.014;2024-02-16T06:22:44;10.20;99.90
46508;DHT22;32223;53.654;10.014;2024-02-16T06:25:09;10.20;99.90
46508;DHT22;32223;53.654;10.014;2024-02-16T06:27:35;10.10;99.90
46508;DHT22;32223;53.654;10.014;2024-02-16T06:30:03;10.20;99.90
46508;DHT22;32223;53.654;10.014;2024-02-16T06:32:30;10.20;99.90
46508;DHT22;32223;53.654;10.014;2024-02-16T06:34:56;10.20;99.90
46508;DHT22;32223;53.654;10.014;2024-02-16T06:37:22;10.20;99.90
46508;DHT22;32223;53.654;10.014;2024-02-16T06:39:48;10.10;99.90
46508;DHT22;32223;53.654;10.014;2024-02-16T06:42:13;10.10;99.90
46508;DHT22;32223;53.654;10.014;2024-02-16T06:44:40;10.20;99.90
46508;DHT22;32223;53.654;10.014;2024-02-16T06:47:06;10.10;99.90
46508;DHT22;32223;53.654;10.014;2024-02-16T06:49:31;10.00;99.90
46508;DHT22;32223;53.654;10.014;2024-02-16T06:51:57;10.00;99.90
46508;DHT22;32223;53.654;10.014;2024-02-16T06:54:22;10.00;99.90
46508;DHT22;32223;53.654;10.014;2024-02-16T06:56:49;10.00;99.90
46508;DHT22;32223;53.654;10.014;2024-02-16T06:59:17;10.00;99.90
46508;DHT22;32223;53.654;10.014;2024-02-16T07:01:42;10.00;99.90
46508;DHT22;32223;53.654;10.014;2024-02-16T07:04:09;10.00;99.90
46508;DHT22;32223;53.654;10.014;2024-02-16T07:06:35;10.00;99.90
46508;DHT22;32223;53.654;10.014;2024-02-16T07:09:01;10.00;99.90
46508;DHT22;32223;53.654;10.014;2024-02-16T07:11:30;10.00;99.90
46508;DHT22;32223;53.654;10.014;2024-02-16T07:13:56;9.90;99.90
46508;DHT22;32223;53.654;10.014;2024-02-16T07:16:21;10.00;99.90
46508;DHT22;32223;53.654;10.014;2024-02-16T07:18:47;10.00;99.90
46508;DHT22;32223;53.654;10.014;2024-02-16T07:21:12;10.00;99.90
46508;DHT22;32223;53.654;10.014;2024-02-16T07:23:38;10.00;99.90
46508;DHT22;32223;53.654;10.014;2024-02-16T07:26:04;10.00;99.90
46508;DHT22;32223;53.654;10.014;2024-02-16T07:28:30;10.10;99.90
46508;DHT22;32223;53.654;10.014;2024-02-16T07:30:57;10.10;99.90
46508;DHT22;32223;53.654;10.014;2024-02-16T07:33:22;10.10;99.90
46508;DHT22;32223;53.654;10.014;2024-02-16T07:35:50;10.20;99.90
46508;DHT22;32223;53.654;10.014;2024-02-16T07:38:15;10.30;99.90
46508;DHT22;32223;53.654;10.014;2024-02-16T07:40:41;10.30;99.90
46508;DHT22;32223;53.654;10.014;2024-02-16T07:43:07;10.30;99.90
46508;DHT22;32223;53.654;10.014;2024-02-16T07:45:33;10.40;99.90
46508;DHT22;32223;53.654;10.014;2024-02-16T07:47:59;10.40;99.90
46508;DHT22;32223;53.654;10.014;2024-02-16T07:50:28;10.50;99.90
46508;DHT22;32223;53.654;10.014;2024-02-16T07:52:53;10.60;99.90
46508;DHT22;32223;53.654;10.014;2024-02-16T07:55:19;10.60;99.90
46508;DHT22;32223;53.654;10.014;2024-02-16T07:57:46;10.70;99.90
46508;DHT22;32223;53.654;10.014;2024-02-16T08:00:12;10.80;99.90
46508;DHT22;32223;53.654;10.014;2024-02-16T08:02:38;10.80;99.90
46508;DHT22;32223;53.654;10.014;2024-02-16T08:05:05;10.90;99.90
46508;DHT22;32223;53.654;10.014;2024-02-16T08:07:33;11.00;99.90
46508;DHT22;32223;53.654;10.014;2024-02-16T08:09:59;11.00;99.90
46508;DHT22;32223;53.654;10.014;2024-02-16T08:12:26;11.10;99.90
46508;DHT22;32223;53.654;10.014;2024-02-16T08:14:53;11.20;99.90
46508;DHT22;32223;53.654;10.014;2024-02-16T08:17:19;11.30;99.90
46508;DHT22;32223;53.654;10.014;2024-02-16T08:19:52;11.30;99.90
46508;DHT22;32223;53.654;10.014;2024-02-16T08:22:18;11.40;99.90
46508;DHT22;32223;53.654;10.014;2024-02-16T08:24:44;11.50;99.90
46508;DHT22;32223;53.654;10.014;2024-02-16T08:27:11;11.50;99.90
46508;DHT22;32223;53.654;10.014;2024-02-16T08:29:44;11.60;99.90
46508;DHT22;32223;53.654;10.014;2024-02-16T08:32:10;11.60;99.90
46508;DHT22;32223;53.654;10.014;2024-02-16T08:34:36;11.70;99.90
46508;DHT22;32223;53.654;10.014;2024-02-16T08:37:05;11.70;99.90
46508;DHT22;32223;53.654;10.014;2024-02-16T08:39:31;11.70;99.90
46508;DHT22;32223;53.654;10.014;2024-02-16T08:41:57;11.70;99.90
46508;DHT22;32223;53.654;10.014;2024-02-16T08:44:24;11.70;99.90
46508;DHT22;32223;53.654;10.014;2024-02-16T08:46:50;11.70;99.90
46508;DHT22;32223;53.654;10.014;2024-02-16T08:49:16;11.80;99.90
46508;DHT22;32223;53.654;10.014;2024-02-16T08:51:42;11.80;99.90
46508;DHT22;32223;53.654;10.014;2024-02-16T08:54:08;11.90;99.90
46508;DHT22;32223;53.654;10.014;2024-02-16T08:56:34;11.90;99.90
46508;DHT22;32223;53.654;10.014;2024-02-16T08:59:01;11.90;99.90
46508;DHT22;32223;53.654;10.014;2024-02-16T09:01:39;11.90;99.90
46508;DHT22;32223;53.654;10.014;2024-02-16T09:04:05;11.90;99.90
46508;DHT22;32223;53.654;10.014;2024-02-16T09:06:31;11.90;99.90
46508;DHT22;32223;53.654;10.014;2024-02-16T09:08:57;12.00;99.90
46508;DHT22;32223;53.654;10.014;2024-02-16T09:11:23;11.80;99.90
46508;DHT22;32223;53.654;10.014;2024-02-16T09:13:49;11.90;99.90
46508;DHT22;32223;53.654;10.014;2024-02-16T09:16:15;12.00;99.90
46508;DHT22;32223;53.654;10.014;2024-02-16T09:18:41;12.00;99.90
46508;DHT22;32223;53.654;10.014;2024-02-16T09:21:07;12.00;99.90
46508;DHT22;32223;53.654;10.014;2024-02-16T09:23:34;11.90;99.90
46508;DHT22;32223;53.654;10.014;2024-02-16T09:26:00;12.10;99.90
46508;DHT22;32223;53.654;10.014;2024-02-16T09:28:28;12.00;99.90
46508;DHT22;32223;53.654;10.014;2024-02-16T09:30:55;12.10;99.90
46508;DHT22;32223;53.654;10.014;2024-02-16T09:33:22;12.10;99.90
46508;DHT22;32223;53.654;10.014;2024-02-16T09:35:48;12.20;99.90
46508;DHT22;32223;53.654;10.014;2024-02-16T09:38:14;12.20;99.90
46508;DHT22;32223;53.654;10.014;2024-02-16T09:40:40;12.20;99.90
46508;DHT22;32223;53.654;10.014;2024-02-16T09:43:05;12.30;99.90
46508;DHT22;32223;53.654;10.014;2024-02-16T09:45:32;12.30;99.90
46508;DHT22;32223;53.654;10.014;2024-02-16T09:47:58;12.40;99.90
46508;DHT22;32223;53.654;10.014;2024-02-16T09:50:24;12.40;99.90
46508;DHT22;32223;53.654;10.014;2024-02-16T09:52:52;12.50;99.90
46508;DHT22;32223;53.654;10.014;2024-02-16T09:55:20;12.40;99.90
46508;DHT22;32223;53.654;10.014;2024-02-16T09:57:45;12.40;99.90
46508;DHT22;32223;53.654;10.014;2024-02-16T10:00:12;12.40;99.90
46508;DHT22;32223;53.654;10.014;2024-02-16T10:02:42;12.40;99.90
46508;DHT22;32223;53.654;10.014;2024-02-16T10:05:17;12.40;99.90
46508;DHT22;32223;53.654;10.014;2024-02-16T10:07:43;12.60;99.90
46508;DHT22;32223;53.654;10.014;2024-02-16T10:10:22;12.60;99.90
46508;DHT22;32223;53.654;10.014;2024-02-16T10:12:48;12.70;99.90
46508;DHT22;32223;53.654;10.014;2024-02-16T10:15:23;12.80;99.90
46508;DHT22;32223;53.654;10.014;2024-02-16T10:18:05;12.70;99.90
46508;DHT22;32223;53.654;10.014;2024-02-16T10:20:44;12.90;99.90
46508;DHT22;32223;53.654;10.014;2024-02-16T10:23:10;13.00;99.90
46508;DHT22;32223;53.654;10.014;2024-02-16T10:25:39;13.10;99.90
46508;DHT22;32223;53.654;10.014;2024-02-16T10:28:08;13.10;99.90
46508;DHT22;32223;53.654;10.014;2024-02-16T10:30:39;13.20;99.90
46508;DHT22;32223;53.654;10.014;2024-02-16T10:33:05;13.30;99.90
46508;DHT22;32223;53.654;10.014;2024-02-16T10:35:36;13.30;99.90
46508;DHT22;32223;53.654;10.014;2024-02-16T10:38:03;13.30;99.90
46508;DHT22;32223;53.654;10.014;2024-02-16T10:40:41;13.40;99.90
46508;DHT22;32223;53.654;10.014;2024-02-16T10:43:09;13.40;99.90
46508;DHT22;32223;53.654;10.014;2024-02-16T10:45:36;13.40;99.90
46508;DHT22;32223;53.654;10.014;2024-02-16T10:48:03;13.30;99.90
46508;DHT22;32223;53.654;10.014;2024-02-16T10:50:29;13.30;99.90
46508;DHT22;32223;53.654;10.014;2024-02-16T10:52:57;13.30;99.90
46508;DHT22;32223;53.654;10.014;2024-02-16T10:55:24;13.30;99.90
46508;DHT22;32223;53.654;10.014;2024-02-16T10:57:50;13.20;99.90
46508;DHT22;32223;53.654;10.014;2024-02-16T11:00:19;13.20;99.90
46508;DHT22;32223;53.654;10.014;2024-02-16T11:02:56;13.30;99.90
46508;DHT22;32223;53.654;10.014;2024-02-16T11:05:39;13.30;99.90
46508;DHT22;32223;53.654;10.014;2024-02-16T11:08:13;13.40;99.90
46508;DHT22;32223;53.654;10.014;2024-02-16T11:10:39;13.50;99.90
46508;DHT22;32223;53.654;10.014;2024-02-16T11:13:04;13.60;99.90
46508;DHT22;32223;53.654;10.014;2024-02-16T11:15:31;13.70;99.90
46508;DHT22;32223;53.654;10.014;2024-02-16T11:18:01;13.80;99.90
46508;DHT22;32223;53.654;10.014;2024-02-16T11:20:27;13.90;99.90
46508;DHT22;32223;53.654;10.014;2024-02-16T11:22:53;14.00;99.90
46508;DHT22;32223;53.654;10.014;2024-02-16T11:25:30;14.10;99.90
46508;DHT22;32223;53.654;10.014;2024-02-16T11:27:56;14.20;99.90
46508;DHT22;32223;53.654;10.014;2024-02-16T11:30:23;14.30;99.90
46508;DHT22;32223;53.654;10.014;2024-02-16T11:32:48;14.40;99.90
46508;DHT22;32223;53.654;10.014;2024-02-16T11:35:14;14.50;99.90
46508;DHT22;32223;53.654;10.014;2024-02-16T11:37:42;14.50;99.90
46508;DHT22;32223;53.654;10.014;2024-02-16T11:40:11;14.60;99.90
46508;DHT22;32223;53.654;10.014;2024-02-16T11:42:37;14.60;99.90
46508;DHT22;32223;53.654;10.014;2024-02-16T11:45:03;14.50;99.90
46508;DHT22;32223;53.654;10.014;2024-02-16T11:47:29;14.50;99.90
46508;DHT22;32223;53.654;10.014;2024-02-16T11:52:31;14.50;99.90
46508;DHT22;32223;53.654;10.014;2024-02-16T11:54:57;14.50;99.90
46508;DHT22;32223;53.654;10.014;2024-02-16T11:57:26;14.50;99.90
46508;DHT22;32223;53.654;10.014;2024-02-16T11:59:52;14.60;99.90
46508;DHT22;32223;53.654;10.014;2024-02-16T12:02:19;14.70;99.90
46508;DHT22;32223;53.654;10.014;2024-02-16T12:04:46;14.70;99.90
46508;DHT22;32223;53.654;10.014;2024-02-16T12:07:13;14.90;99.90
46508;DHT22;32223;53.654;10.014;2024-02-16T12:09:40;15.10;99.90
46508;DHT22;32223;53.654;10.014;2024-02-16T12:12:06;15.20;99.90
46508;DHT22;32223;53.654;10.014;2024-02-16T12:14:32;15.40;99.90
46508;DHT22;32223;53.654;10.014;2024-02-16T12:16:58;15.40;99.90
46508;DHT22;32223;53.654;10.014;2024-02-16T12:19:24;15.30;99.90
46508;DHT22;32223;53.654;10.014;2024-02-16T12:21:55;15.20;99.90
46508;DHT22;32223;53.654;10.014;2024-02-16T12:24:24;15.30;99.90
46508;DHT22;32223;53.654;10.014;2024-02-16T12:26:50;15.40;99.90
46508;DHT22;32223;53.654;10.014;2024-02-16T12:29:15;15.30;99.90
46508;DHT22;32223;53.654;10.014;2024-02-16T12:31:43;15.40;99.90
46508;DHT22;32223;53.654;10.014;2024-02-16T12:34:10;15.40;99.90
46508;DHT22;32223;53.654;10.014;2024-02-16T12:36:40;15.60;99.90
46508;DHT22;32223;53.654;10.014;2024-02-16T12:39:06;15.80;99.90
46508;DHT22;32223;53.654;10.014;2024-02-16T12:41:35;15.80;99.90
46508;DHT22;32223;53.654;10.014;2024-02-16T12:44:04;15.80;99.90
46508;DHT22;32223;53.654;10.014;2024-02-16T12:46:31;15.60;99.90
46508;DHT22;32223;53.654;10.014;2024-02-16T12:48:56;15.50;99.90
46508;DHT22;32223;53.654;10.014;2024-02-16T12:51:22;15.30;99.90
46508;DHT22;32223;53.654;10.014;2024-02-16T12:53:48;15.20;99.90
46508;DHT22;32223;53.654;10.014;2024-02-16T12:56:14;15.10;99.90
46508;DHT22;32223;53.654;10.014;2024-02-16T12:58:40;15.10;99.90
46508;DHT22;32223;53.654;10.014;2024-02-16T13:01:06;15.00;99.90
46508;DHT22;32223;53.654;10.014;2024-02-16T13:03:35;14.80;99.90
46508;DHT22;32223;53.654;10.014;2024-02-16T13:06:01;14.80;99.90
46508;DHT22;32223;53.654;10.014;2024-02-16T13:08:28;14.70;99.90
46508;DHT22;32223;53.654;10.014;2024-02-16T13:10:54;14.60;99.90
46508;DHT22;32223;53.654;10.014;2024-02-16T13:13:19;14.60;99.90
46508;DHT22;32223;53.654;10.014;2024-02-16T13:15:46;14.50;99.90
46508;DHT22;32223;53.654;10.014;2024-02-16T13:18:13;14.40;99.90
46508;DHT22;32223;53.654;10.014;2024-02-16T13:20:39;14.40;99.90
46508;DHT22;32223;53.654;10.014;2024-02-16T13:23:04;14.30;99.90
46508;DHT22;32223;53.654;10.014;2024-02-16T13:25:30;14.30;99.90
46508;DHT22;32223;53.654;10.014;2024-02-16T13:27:55;14.30;99.90
46508;DHT22;32223;53.654;10.014;2024-02-16T13:30:21;14.30;99.90
46508;DHT22;32223;53.654;10.014;2024-02-16T13:32:47;14.40;99.90
46508;DHT22;32223;53.654;10.014;2024-02-16T13:35:12;14.40;99.90
46508;DHT22;32223;53.654;10.014;2024-02-16T13:37:39;14.40;99.90
46508;DHT22;32223;53.654;10.014;2024-02-16T13:40:07;14.30;99.90
46508;DHT22;32223;53.654;10.014;2024-02-16T13:42:40;14.40;99.90
46508;DHT22;32223;53.654;10.014;2024-02-16T13:45:09;14.30;99.90
46508;DHT22;32223;53.654;10.014;2024-02-16T13:47:37;14.20;99.90
46508;DHT22;32223;53.654;10.014;2024-02-16T13:50:07;14.30;99.90
46508;DHT22;32223;53.654;10.014;2024-02-16T13:52:32;14.30;99.90
46508;DHT22;32223;53.654;10.014;2024-02-16T13:54:59;14.20;99.90
46508;DHT22;32223;53.654;10.014;2024-02-16T13:57:25;14.20;99.90
46508;DHT22;32223;53.654;10.014;2024-02-16T13:59:51;14.10;99.90
46508;DHT22;32223;53.654;10.014;2024-02-16T14:02:16;14.10;99.90
46508;DHT22;32223;53.654;10.014;2024-02-16T14:04:42;14.20;99.90
46508;DHT22;32223;53.654;10.014;2024-02-16T14:07:08;14.20;99.90
46508;DHT22;32223;53.654;10.014;2024-02-16T14:09:35;14.20;99.90
46508;DHT22;32223;53.654;10.014;2024-02-16T14:12:00;14.20;99.90
46508;DHT22;32223;53.654;10.014;2024-02-16T14:14:26;14.20;99.90
46508;DHT22;32223;53.654;10.014;2024-02-16T14:16:52;14.20;99.90
46508;DHT22;32223;53.654;10.014;2024-02-16T14:19:18;14.30;99.90
46508;DHT22;32223;53.654;10.014;2024-02-16T14:21:43;14.40;99.90
46508;DHT22;32223;53.654;10.014;2024-02-16T14:24:09;14.20;99.90
46508;DHT22;32223;53.654;10.014;2024-02-16T14:26:37;14.30;99.90
46508;DHT22;32223;53.654;10.014;2024-02-16T14:29:04;14.20;99.90
46508;DHT22;32223;53.654;10.014;2024-02-16T14:31:30;14.20;99.90
46508;DHT22;32223;53.654;10.014;2024-02-16T14:33:56;14.20;99.90
46508;DHT22;32223;53.654;10.014;2024-02-16T14:36:21;14.10;99.90
46508;DHT22;32223;53.654;10.014;2024-02-16T14:38:47;14.10;99.90
46508;DHT22;32223;53.654;10.014;2024-02-16T14:41:13;14.10;99.90
46508;DHT22;32223;53.654;10.014;2024-02-16T14:43:41;14.00;99.90
46508;DHT22;32223;53.654;10.014;2024-02-16T14:46:06;13.90;99.90
46508;DHT22;32223;53.654;10.014;2024-02-16T14:48:33;13.90;99.90
46508;DHT22;32223;53.654;10.014;2024-02-16T14:50:59;13.80;99.90
46508;DHT22;32223;53.654;10.014;2024-02-16T14:53:24;13.80;99.90
46508;DHT22;32223;53.654;10.014;2024-02-16T14:55:50;13.70;99.90
46508;DHT22;32223;53.654;10.014;2024-02-16T14:58:16;13.60;99.90
46508;DHT22;32223;53.654;10.014;2024-02-16T15:00:42;13.50;99.90
46508;DHT22;32223;53.654;10.014;2024-02-16T15:03:09;13.40;99.90
46508;DHT22;32223;53.654;10.014;2024-02-16T15:05:34;13.30;99.90
46508;DHT22;32223;53.654;10.014;2024-02-16T15:08:00;13.30;99.90
46508;DHT22;32223;53.654;10.014;2024-02-16T15:10:27;13.20;99.90
46508;DHT22;32223;53.654;10.014;2024-02-16T15:12:53;13.10;99.90
46508;DHT22;32223;53.654;10.014;2024-02-16T15:15:18;13.10;99.90